sensor_id;sensor_type;location;lat;lon;timestamp;pressure;altitude;pressure_sealevel;temperature;humidity
84028;BME280;74111;45.650;25.612;2024-01-10T00:00:03;96253.91;;;-6.04;56.22
84028;BME280;74111;45.650;25.612;2024-01-10T00:02:32;96253.27;;;-6.00;56.50
84028;BME280;74111;45.650;25.612;2024-01-10T00:05:01;96254.22;;;-5.98;56.76
84028;BME280;74111;45.650;25.612;2024-01-10T00:07:29;96251.79;;;-5.91;56.66
84028;BME280;74111;45.650;25.612;2024-01-10T00:09:57;96254.18;;;-5.89;56.58
84028;BME280;74111;45.650;25.612;2024-01-10T00:12:28;96257.13;;;-5.85;56.75
84028;BME280;74111;45.650;25.612;2024-01-10T00:15:05;96255.66;;;-5.80;56.38
84028;BME280;74111;45.650;25.612;2024-01-10T00:17:34;96253.68;;;-5.71;56.23
84028;BME280;74111;45.650;25.612;2024-01-10T00:20:02;96253.08;;;-5.75;55.02
84028;BME280;74111;45.650;25.612;2024-01-10T00:22:30;96251.77;;;-5.81;55.34
84028;BME280;74111;45.650;25.612;2024-01-10T00:24:59;96254.16;;;-5.86;55.40
84028;BME280;74111;45.650;25.612;2024-01-10T00:27:27;96257.73;;;-5.92;55.24
84028;BME280;74111;45.650;25.612;2024-01-10T00:29:55;96260.63;;;-6.00;55.00
84028;BME280;74111;45.650;25.612;2024-01-10T00:32:25;96261.31;;;-6.07;54.95
84028;BME280;74111;45.650;25.612;2024-01-10T00:34:53;96262.00;;;-6.13;55.02
84028;BME280;74111;45.650;25.612;2024-01-10T00:37:21;96262.48;;;-6.20;55.06
84028;BME280;74111;45.650;25.612;2024-01-10T00:39:49;96264.77;;;-6.27;54.86
84028;BME280;74111;45.650;25.612;2024-01-10T00:42:18;96264.52;;;-6.34;55.00
84028;BME280;74111;45.650;25.612;2024-01-10T00:44:46;96259.95;;;-6.38;55.23
84028;BME280;74111;45.650;25.612;2024-01-10T00:47:14;96256.30;;;-6.47;55.39
84028;BME280;74111;45.650;25.612;2024-01-10T00:49:43;96259.35;;;-6.50;56.05
84028;BME280;74111;45.650;25.612;2024-01-10T00:52:11;96258.64;;;-6.50;55.85
84028;BME280;74111;45.650;25.612;2024-01-10T00:54:40;96263.72;;;-6.53;56.02
84028;BME280;74111;45.650;25.612;2024-01-10T00:57:08;96267.98;;;-6.54;56.22
84028;BME280;74111;45.650;25.612;2024-01-10T00:59:37;96268.23;;;-6.49;57.18
84028;BME280;74111;45.650;25.612;2024-01-10T01:02:05;96269.73;;;-6.41;57.59
84028;BME280;74111;45.650;25.612;2024-01-10T01:04:33;96274.55;;;-6.28;58.06
84028;BME280;74111;45.650;25.612;2024-01-10T01:07:02;96266.85;;;-6.17;57.67
84028;BME280;74111;45.650;25.612;2024-01-10T01:09:30;96272.18;;;-6.10;57.99
84028;BME280;74111;45.650;25.612;2024-01-10T01:11:59;96269.31;;;-6.01;58.01
84028;BME280;74111;45.650;25.612;2024-01-10T01:14:27;96267.41;;;-5.95;57.78
84028;BME280;74111;45.650;25.612;2024-01-10T01:16:55;96262.92;;;-5.87;57.45
84028;BME280;74111;45.650;25.612;2024-01-10T01:19:23;96262.82;;;-5.77;57.14
84028;BME280;74111;45.650;25.612;2024-01-10T01:21:51;96258.84;;;-5.71;56.58
84028;BME280;74111;45.650;25.612;2024-01-10T01:24:20;96255.31;;;-5.70;56.44
84028;BME280;74111;45.650;25.612;2024-01-10T01:26:48;96254.56;;;-5.73;57.09
84028;BME280;74111;45.650;25.612;2024-01-10T01:29:16;96253.27;;;-5.82;56.63
84028;BME280;74111;45.650;25.612;2024-01-10T01:31:44;96246.04;;;-5.92;56.85
84028;BME280;74111;45.650;25.612;2024-01-10T01:34:13;96244.95;;;-5.99;57.06
84028;BME280;74111;45.650;25.612;2024-01-10T01:36:41;96241.19;;;-6.08;56.80
84028;BME280;74111;45.650;25.612;2024-01-10T01:39:09;96242.20;;;-6.11;57.20
84028;BME280;74111;45.650;25.612;2024-01-10T01:41:37;96235.64;;;-6.13;57.50
84028;BME280;74111;45.650;25.612;2024-01-10T01:44:06;96234.84;;;-6.18;58.02
84028;BME280;74111;45.650;25.612;2024-01-10T01:46:34;96232.42;;;-6.26;58.05
84028;BME280;74111;45.650;25.612;2024-01-10T01:49:03;96235.58;;;-6.28;57.67
84028;BME280;74111;45.650;25.612;2024-01-10T01:51:32;96234.84;;;-6.20;57.90
84028;BME280;74111;45.650;25.612;2024-01-10T01:54:06;96235.05;;;-6.14;58.45
84028;BME280;74111;45.650;25.612;2024-01-10T01:56:36;96236.41;;;-6.12;58.51
84028;BME280;74111;45.650;25.612;2024-01-10T01:59:05;96234.20;;;-6.14;58.44
84028;BME280;74111;45.650;25.612;2024-01-10T02:01:33;96228.73;;;-6.18;58.44
84028;BME280;74111;45.650;25.612;2024-01-10T02:04:02;96223.36;;;-6.22;58.74
84028;BME280;74111;45.650;25.612;2024-01-10T02:06:33;96218.75;;;-6.15;59.35
84028;BME280;74111;45.650;25.612;2024-01-10T02:09:02;96218.09;;;-6.01;59.19
84028;BME280;74111;45.650;25.612;2024-01-10T02:11:31;96216.62;;;-5.91;58.62
84028;BME280;74111;45.650;25.612;2024-01-10T02:13:59;96221.06;;;-5.84;58.15
84028;BME280;74111;45.650;25.612;2024-01-10T02:16:28;96216.70;;;-5.95;57.33
84028;BME280;74111;45.650;25.612;2024-01-10T02:18:56;96214.36;;;-6.10;57.61
84028;BME280;74111;45.650;25.612;2024-01-10T02:21:24;96213.48;;;-6.20;57.86
84028;BME280;74111;45.650;25.612;2024-01-10T02:23:52;96216.59;;;-6.24;58.23
84028;BME280;74111;45.650;25.612;2024-01-10T02:26:20;96218.08;;;-6.33;57.56
84028;BME280;74111;45.650;25.612;2024-01-10T02:28:49;96217.73;;;-6.50;57.05
84028;BME280;74111;45.650;25.612;2024-01-10T02:31:18;96215.90;;;-6.67;57.90
84028;BME280;74111;45.650;25.612;2024-01-10T02:33:46;96212.52;;;-6.81;58.08
84028;BME280;74111;45.650;25.612;2024-01-10T02:36:15;96215.59;;;-6.95;57.84
84028;BME280;74111;45.650;25.612;2024-01-10T02:38:43;96215.98;;;-7.10;57.98
84028;BME280;74111;45.650;25.612;2024-01-10T02:41:11;96214.27;;;-7.15;58.65
84028;BME280;74111;45.650;25.612;2024-01-10T02:43:39;96210.77;;;-7.18;58.90
84028;BME280;74111;45.650;25.612;2024-01-10T02:46:08;96212.38;;;-7.20;58.53
84028;BME280;74111;45.650;25.612;2024-01-10T02:48:36;96212.05;;;-7.22;58.85
84028;BME280;74111;45.650;25.612;2024-01-10T02:51:04;96213.89;;;-7.23;58.87
84028;BME280;74111;45.650;25.612;2024-01-10T02:53:33;96216.36;;;-7.23;58.83
84028;BME280;74111;45.650;25.612;2024-01-10T02:56:01;96219.36;;;-7.16;58.29
84028;BME280;74111;45.650;25.612;2024-01-10T02:58:29;96218.81;;;-7.14;58.61
84028;BME280;74111;45.650;25.612;2024-01-10T03:00:58;96220.34;;;-7.09;58.49
84028;BME280;74111;45.650;25.612;2024-01-10T03:03:26;96225.27;;;-6.93;59.14
84028;BME280;74111;45.650;25.612;2024-01-10T03:05:54;96227.60;;;-6.76;58.79
84028;BME280;74111;45.650;25.612;2024-01-10T03:08:23;96228.86;;;-6.69;58.20
84028;BME280;74111;45.650;25.612;2024-01-10T03:10:51;96229.98;;;-6.63;57.92
84028;BME280;74111;45.650;25.612;2024-01-10T03:13:19;96229.85;;;-6.57;57.53
84028;BME280;74111;45.650;25.612;2024-01-10T03:15:48;96228.94;;;-6.53;57.04
84028;BME280;74111;45.650;25.612;2024-01-10T03:18:16;96229.63;;;-6.57;56.48
84028;BME280;74111;45.650;25.612;2024-01-10T03:20:44;96227.16;;;-6.61;56.42
84028;BME280;74111;45.650;25.612;2024-01-10T03:23:13;96227.95;;;-6.67;56.75
84028;BME280;74111;45.650;25.612;2024-01-10T03:25:41;96227.33;;;-6.67;56.70
84028;BME280;74111;45.650;25.612;2024-01-10T03:28:09;96226.42;;;-6.72;56.47
84028;BME280;74111;45.650;25.612;2024-01-10T03:30:37;96225.53;;;-6.80;56.14
84028;BME280;74111;45.650;25.612;2024-01-10T03:33:06;96228.09;;;-6.94;56.32
84028;BME280;74111;45.650;25.612;2024-01-10T03:35:34;96225.20;;;-6.99;56.85
84028;BME280;74111;45.650;25.612;2024-01-10T03:38:03;96223.21;;;-6.95;56.92
84028;BME280;74111;45.650;25.612;2024-01-10T03:40:32;96222.04;;;-6.89;57.45
84028;BME280;74111;45.650;25.612;2024-01-10T03:43:00;96220.38;;;-6.82;57.67
84028;BME280;74111;45.650;25.612;2024-01-10T03:45:28;96218.98;;;-6.76;57.89
84028;BME280;74111;45.650;25.612;2024-01-10T03:47:57;96217.77;;;-6.65;58.17
84028;BME280;74111;45.650;25.612;2024-01-10T03:50:25;96213.55;;;-6.53;58.12
84028;BME280;74111;45.650;25.612;2024-01-10T03:52:54;96213.90;;;-6.45;58.11
84028;BME280;74111;45.650;25.612;2024-01-10T03:55:22;96213.14;;;-6.38;57.96
84028;BME280;74111;45.650;25.612;2024-01-10T03:57:50;96211.96;;;-6.34;57.71
84028;BME280;74111;45.650;25.612;2024-01-10T04:00:18;96211.48;;;-6.28;57.73
84028;BME280;74111;45.650;25.612;2024-01-10T04:02:47;96211.96;;;-6.27;57.51
84028;BME280;74111;45.650;25.612;2024-01-10T04:05:19;96214.71;;;-6.35;57.33
84028;BME280;74111;45.650;25.612;2024-01-10T04:07:48;96214.23;;;-6.42;57.30
84028;BME280;74111;45.650;25.612;2024-01-10T04:10:17;96216.52;;;-6.44;57.51
84028;BME280;74111;45.650;25.612;2024-01-10T04:12:46;96220.39;;;-6.44;57.25
84028;BME280;74111;45.650;25.612;2024-01-10T04:15:14;96222.87;;;-6.48;57.10
84028;BME280;74111;45.650;25.612;2024-01-10T04:17:42;96230.81;;;-6.58;57.14
84028;BME280;74111;45.650;25.612;2024-01-10T04:20:11;96230.57;;;-6.62;57.41
84028;BME280;74111;45.650;25.612;2024-01-10T04:22:39;96231.42;;;-6.63;57.24
84028;BME280;74111;45.650;25.612;2024-01-10T04:25:08;96231.39;;;-6.66;56.99
84028;BME280;74111;45.650;25.612;2024-01-10T04:27:36;96235.30;;;-6.69;57.22
84028;BME280;74111;45.650;25.612;2024-01-10T04:30:06;96234.98;;;-6.79;56.83
84028;BME280;74111;45.650;25.612;2024-01-10T04:32:34;96237.25;;;-6.91;56.57
84028;BME280;74111;45.650;25.612;2024-01-10T04:35:03;96237.59;;;-6.99;57.34
84028;BME280;74111;45.650;25.612;2024-01-10T04:37:32;96238.44;;;-6.97;57.19
84028;BME280;74111;45.650;25.612;2024-01-10T04:40:00;96243.27;;;-6.94;57.82
84028;BME280;74111;45.650;25.612;2024-01-10T04:42:30;96242.75;;;-6.86;58.24
84028;BME280;74111;45.650;25.612;2024-01-10T04:44:58;96242.88;;;-6.79;58.33
84028;BME280;74111;45.650;25.612;2024-01-10T04:47:26;96243.36;;;-6.72;58.57
84028;BME280;74111;45.650;25.612;2024-01-10T04:49:55;96250.84;;;-6.64;58.14
84028;BME280;74111;45.650;25.612;2024-01-10T04:52:23;96255.37;;;-6.68;57.55
84028;BME280;74111;45.650;25.612;2024-01-10T04:54:51;96257.65;;;-6.74;57.92
84028;BME280;74111;45.650;25.612;2024-01-10T04:57:19;96254.35;;;-6.76;57.81
84028;BME280;74111;45.650;25.612;2024-01-10T04:59:48;96257.77;;;-6.81;57.05
84028;BME280;74111;45.650;25.612;2024-01-10T05:02:17;96259.98;;;-6.92;56.77
84028;BME280;74111;45.650;25.612;2024-01-10T05:04:45;96264.67;;;-7.07;56.31
84028;BME280;74111;45.650;25.612;2024-01-10T05:07:14;96267.05;;;-7.21;56.28
84028;BME280;74111;45.650;25.612;2024-01-10T05:09:42;96269.25;;;-7.34;56.34
84028;BME280;74111;45.650;25.612;2024-01-10T05:12:10;96270.23;;;-7.47;56.67
84028;BME280;74111;45.650;25.612;2024-01-10T05:14:39;96273.98;;;-7.55;57.01
84028;BME280;74111;45.650;25.612;2024-01-10T05:17:07;96276.73;;;-7.62;57.05
84028;BME280;74111;45.650;25.612;2024-01-10T05:19:35;96276.23;;;-7.69;56.64
84028;BME280;74111;45.650;25.612;2024-01-10T05:22:04;96277.98;;;-7.71;57.65
84028;BME280;74111;45.650;25.612;2024-01-10T05:24:32;96276.61;;;-7.76;56.23
84028;BME280;74111;45.650;25.612;2024-01-10T05:27:00;96276.45;;;-7.84;56.53
84028;BME280;74111;45.650;25.612;2024-01-10T05:29:29;96277.28;;;-7.86;57.58
84028;BME280;74111;45.650;25.612;2024-01-10T05:31:57;96278.99;;;-7.81;57.77
84028;BME280;74111;45.650;25.612;2024-01-10T05:34:25;96278.52;;;-7.79;57.15
84028;BME280;74111;45.650;25.612;2024-01-10T05:36:54;96283.36;;;-7.78;57.85
84028;BME280;74111;45.650;25.612;2024-01-10T05:39:22;96284.05;;;-7.69;58.72
84028;BME280;74111;45.650;25.612;2024-01-10T05:41:50;96284.90;;;-7.59;58.99
84028;BME280;74111;45.650;25.612;2024-01-10T05:44:19;96281.41;;;-7.50;58.08
84028;BME280;74111;45.650;25.612;2024-01-10T05:46:47;96285.36;;;-7.50;58.61
84028;BME280;74111;45.650;25.612;2024-01-10T05:49:16;96285.55;;;-7.47;58.67
84028;BME280;74111;45.650;25.612;2024-01-10T05:51:44;96289.20;;;-7.46;58.30
84028;BME280;74111;45.650;25.612;2024-01-10T05:54:13;96288.01;;;-7.46;57.79
84028;BME280;74111;45.650;25.612;2024-01-10T05:56:41;96290.96;;;-7.44;57.33
84028;BME280;74111;45.650;25.612;2024-01-10T05:59:10;96288.75;;;-7.49;57.09
84028;BME280;74111;45.650;25.612;2024-01-10T06:01:42;96292.04;;;-7.51;57.00
84028;BME280;74111;45.650;25.612;2024-01-10T06:04:11;96292.73;;;-7.55;56.84
84028;BME280;74111;45.650;25.612;2024-01-10T06:06:39;96289.41;;;-7.61;56.55
84028;BME280;74111;45.650;25.612;2024-01-10T06:09:07;96293.06;;;-7.68;56.94
84028;BME280;74111;45.650;25.612;2024-01-10T06:11:42;96300.04;;;-7.71;57.87
84028;BME280;74111;45.650;25.612;2024-01-10T06:14:11;96299.45;;;-7.72;57.36
84028;BME280;74111;45.650;25.612;2024-01-10T06:16:39;96299.70;;;-7.74;56.76
84028;BME280;74111;45.650;25.612;2024-01-10T06:19:08;96302.19;;;-7.82;56.93
84028;BME280;74111;45.650;25.612;2024-01-10T06:21:38;96303.89;;;-7.87;57.08
84028;BME280;74111;45.650;25.612;2024-01-10T06:24:06;96305.37;;;-7.81;57.63
84028;BME280;74111;45.650;25.612;2024-01-10T06:26:36;96304.26;;;-7.75;57.90
84028;BME280;74111;45.650;25.612;2024-01-10T06:29:04;96307.77;;;-7.67;58.34
84028;BME280;74111;45.650;25.612;2024-01-10T06:31:32;96305.98;;;-7.58;58.28
84028;BME280;74111;45.650;25.612;2024-01-10T06:34:01;96312.81;;;-7.49;59.10
84028;BME280;74111;45.650;25.612;2024-01-10T06:36:30;96313.77;;;-7.41;58.08
84028;BME280;74111;45.650;25.612;2024-01-10T06:38:58;96321.00;;;-7.26;58.74
84028;BME280;74111;45.650;25.612;2024-01-10T06:41:28;96318.30;;;-7.05;58.78
84028;BME280;74111;45.650;25.612;2024-01-10T06:43:57;96316.45;;;-6.87;58.72
84028;BME280;74111;45.650;25.612;2024-01-10T06:46:25;96316.61;;;-6.70;58.40
84028;BME280;74111;45.650;25.612;2024-01-10T06:48:53;96316.33;;;-6.55;58.03
84028;BME280;74111;45.650;25.612;2024-01-10T06:51:21;96316.61;;;-6.44;57.49
84028;BME280;74111;45.650;25.612;2024-01-10T06:53:50;96315.79;;;-6.38;56.85
84028;BME280;74111;45.650;25.612;2024-01-10T06:56:18;96322.38;;;-6.45;55.56
84028;BME280;74111;45.650;25.612;2024-01-10T06:58:46;96324.81;;;-6.55;56.38
84028;BME280;74111;45.650;25.612;2024-01-10T07:01:14;96322.29;;;-6.54;56.49
84028;BME280;74111;45.650;25.612;2024-01-10T07:03:43;96321.84;;;-6.51;56.42
84028;BME280;74111;45.650;25.612;2024-01-10T07:06:14;96321.09;;;-6.49;56.54
84028;BME280;74111;45.650;25.612;2024-01-10T07:08:47;96319.36;;;-6.44;56.56
84028;BME280;74111;45.650;25.612;2024-01-10T07:11:17;96313.95;;;-6.40;56.36
84028;BME280;74111;45.650;25.612;2024-01-10T07:13:48;96312.45;;;-6.38;56.25
84028;BME280;74111;45.650;25.612;2024-01-10T07:16:16;96316.38;;;-6.39;56.26
84028;BME280;74111;45.650;25.612;2024-01-10T07:18:46;96314.07;;;-6.38;56.74
84028;BME280;74111;45.650;25.612;2024-01-10T07:21:15;96317.23;;;-6.37;55.94
84028;BME280;74111;45.650;25.612;2024-01-10T07:23:44;96317.83;;;-6.33;56.76
84028;BME280;74111;45.650;25.612;2024-01-10T07:26:13;96317.68;;;-6.24;57.20
84028;BME280;74111;45.650;25.612;2024-01-10T07:28:44;96319.48;;;-6.13;57.37
84028;BME280;74111;45.650;25.612;2024-01-10T07:31:12;96321.22;;;-6.04;57.33
84028;BME280;74111;45.650;25.612;2024-01-10T07:33:41;96320.80;;;-5.95;57.39
84028;BME280;74111;45.650;25.612;2024-01-10T07:36:09;96321.34;;;-5.82;57.44
84028;BME280;74111;45.650;25.612;2024-01-10T07:38:38;96323.57;;;-5.73;57.15
84028;BME280;74111;45.650;25.612;2024-01-10T07:41:07;96322.19;;;-5.65;57.08
84028;BME280;74111;45.650;25.612;2024-01-10T07:43:35;96321.15;;;-5.54;56.60
84028;BME280;74111;45.650;25.612;2024-01-10T07:46:04;96321.25;;;-5.45;56.19
84028;BME280;74111;45.650;25.612;2024-01-10T07:48:32;96322.17;;;-5.41;55.96
84028;BME280;74111;45.650;25.612;2024-01-10T07:51:00;96321.09;;;-5.36;55.77
84028;BME280;74111;45.650;25.612;2024-01-10T07:53:28;96315.34;;;-5.34;55.52
84028;BME280;74111;45.650;25.612;2024-01-10T07:55:57;96318.20;;;-5.34;56.01
84028;BME280;74111;45.650;25.612;2024-01-10T07:58:25;96315.36;;;-5.36;56.19
84028;BME280;74111;45.650;25.612;2024-01-10T08:00:53;96314.45;;;-5.32;55.82
84028;BME280;74111;45.650;25.612;2024-01-10T08:03:22;96312.39;;;-5.29;55.50
84028;BME280;74111;45.650;25.612;2024-01-10T08:05:50;96313.34;;;-5.25;55.89
84028;BME280;74111;45.650;25.612;2024-01-10T08:08:18;96310.52;;;-5.19;55.47
84028;BME280;74111;45.650;25.612;2024-01-10T08:10:47;96310.20;;;-5.16;55.21
84028;BME280;74111;45.650;25.612;2024-01-10T08:13:16;96309.04;;;-5.08;55.99
84028;BME280;74111;45.650;25.612;2024-01-10T08:15:46;96308.39;;;-4.96;55.63
84028;BME280;74111;45.650;25.612;2024-01-10T08:18:14;96305.51;;;-4.86;55.61
84028;BME280;74111;45.650;25.612;2024-01-10T08:20:42;96306.09;;;-4.73;55.65
84028;BME280;74111;45.650;25.612;2024-01-10T08:23:10;96302.77;;;-4.62;55.79
84028;BME280;74111;45.650;25.612;2024-01-10T08:25:39;96308.75;;;-4.49;55.78
84028;BME280;74111;45.650;25.612;2024-01-10T08:28:08;96311.98;;;-4.43;55.48
84028;BME280;74111;45.650;25.612;2024-01-10T08:30:38;96314.98;;;-4.34;55.33
84028;BME280;74111;45.650;25.612;2024-01-10T08:33:06;96316.48;;;-4.26;55.51
84028;BME280;74111;45.650;25.612;2024-01-10T08:35:35;96311.70;;;-4.17;55.03
84028;BME280;74111;45.650;25.612;2024-01-10T08:38:04;96316.55;;;-4.12;54.59
84028;BME280;74111;45.650;25.612;2024-01-10T08:40:35;96320.89;;;-4.03;54.65
84028;BME280;74111;45.650;25.612;2024-01-10T08:43:04;96323.80;;;-3.96;54.36
84028;BME280;74111;45.650;25.612;2024-01-10T08:45:33;96320.16;;;-3.88;54.07
84028;BME280;74111;45.650;25.612;2024-01-10T08:48:21;96325.50;;;-3.84;54.17
84028;BME280;74111;45.650;25.612;2024-01-10T08:50:51;96324.48;;;-3.73;54.63
84028;BME280;74111;45.650;25.612;2024-01-10T08:53:22;96325.54;;;-3.62;54.47
84028;BME280;74111;45.650;25.612;2024-01-10T08:56:05;96322.68;;;-3.48;54.26
84028;BME280;74111;45.650;25.612;2024-01-10T08:58:43;96319.36;;;-3.31;54.58
84028;BME280;74111;45.650;25.612;2024-01-10T09:01:13;96318.87;;;-3.13;54.12
84028;BME280;74111;45.650;25.612;2024-01-10T09:03:42;96318.08;;;-2.94;54.20
84028;BME280;74111;45.650;25.612;2024-01-10T09:06:10;96314.07;;;-2.76;53.72
84028;BME280;74111;45.650;25.612;2024-01-10T09:08:39;96311.13;;;-2.61;52.52
84028;BME280;74111;45.650;25.612;2024-01-10T09:11:08;96310.23;;;-2.45;52.93
84028;BME280;74111;45.650;25.612;2024-01-10T09:13:37;96304.98;;;-2.27;52.78
84028;BME280;74111;45.650;25.612;2024-01-10T09:16:07;96302.72;;;-2.07;50.48
84028;BME280;74111;45.650;25.612;2024-01-10T09:18:37;96302.30;;;-1.88;51.02
84028;BME280;74111;45.650;25.612;2024-01-10T09:21:06;96304.48;;;-1.61;52.51
84028;BME280;74111;45.650;25.612;2024-01-10T09:23:35;96304.07;;;-1.34;51.75
84028;BME280;74111;45.650;25.612;2024-01-10T09:26:04;96303.66;;;-1.07;51.33
84028;BME280;74111;45.650;25.612;2024-01-10T09:28:32;96300.66;;;-0.78;50.74
84028;BME280;74111;45.650;25.612;2024-01-10T09:31:01;96296.45;;;-0.47;50.22
84028;BME280;74111;45.650;25.612;2024-01-10T09:33:29;96294.52;;;-0.20;47.89
84028;BME280;74111;45.650;25.612;2024-01-10T09:35:58;96286.92;;;0.03;47.32
84028;BME280;74111;45.650;25.612;2024-01-10T09:38:28;96289.52;;;0.33;47.74
84028;BME280;74111;45.650;25.612;2024-01-10T09:40:59;96282.36;;;0.57;44.03
84028;BME280;74111;45.650;25.612;2024-01-10T09:43:31;96284.27;;;0.75;45.54
84028;BME280;74111;45.650;25.612;2024-01-10T09:46:03;96288.53;;;1.02;44.24
84028;BME280;74111;45.650;25.612;2024-01-10T09:48:34;96286.10;;;1.21;44.69
84028;BME280;74111;45.650;25.612;2024-01-10T09:51:03;96284.60;;;1.43;45.31
84028;BME280;74111;45.650;25.612;2024-01-10T09:53:35;96281.11;;;1.72;43.68
84028;BME280;74111;45.650;25.612;2024-01-10T09:56:05;96278.16;;;1.97;42.17
84028;BME280;74111;45.650;25.612;2024-01-10T09:58:33;96278.27;;;2.14;41.14
84028;BME280;74111;45.650;25.612;2024-01-10T10:01:08;96275.54;;;2.37;40.84
84028;BME280;74111;45.650;25.612;2024-01-10T10:03:38;96271.05;;;2.64;41.32
84028;BME280;74111;45.650;25.612;2024-01-10T10:06:12;96268.78;;;2.98;41.17
84028;BME280;74111;45.650;25.612;2024-01-10T10:08:43;96261.67;;;3.38;39.93
84028;BME280;74111;45.650;25.612;2024-01-10T10:11:12;96259.81;;;4.11;37.55
84028;BME280;74111;45.650;25.612;2024-01-10T10:13:43;96257.80;;;5.42;33.97
84028;BME280;74111;45.650;25.612;2024-01-10T10:16:23;96260.42;;;6.83;32.28
84028;BME280;74111;45.650;25.612;2024-01-10T10:18:53;96256.83;;;8.73;32.80
84028;BME280;74111;45.650;25.612;2024-01-10T10:21:26;96254.59;;;10.34;28.67
84028;BME280;74111;45.650;25.612;2024-01-10T10:24:02;96256.69;;;11.75;28.56
84028;BME280;74111;45.650;25.612;2024-01-10T10:26:33;96251.87;;;12.91;25.93
84028;BME280;74111;45.650;25.612;2024-01-10T10:29:02;96251.50;;;13.74;24.43
84028;BME280;74111;45.650;25.612;2024-01-10T10:31:31;96247.60;;;14.33;22.90
84028;BME280;74111;45.650;25.612;2024-01-10T10:34:01;96250.46;;;14.99;21.81
84028;BME280;74111;45.650;25.612;2024-01-10T10:36:30;96247.13;;;15.71;22.39
84028;BME280;74111;45.650;25.612;2024-01-10T10:39:00;96247.52;;;16.58;22.68
84028;BME280;74111;45.650;25.612;2024-01-10T10:41:33;96241.56;;;17.06;18.82
84028;BME280;74111;45.650;25.612;2024-01-10T10:44:04;96235.12;;;17.02;16.82
84028;BME280;74111;45.650;25.612;2024-01-10T10:46:38;96233.57;;;17.12;17.86
84028;BME280;74111;45.650;25.612;2024-01-10T10:49:11;96233.20;;;17.50;20.36
84028;BME280;74111;45.650;25.612;2024-01-10T10:51:50;96231.86;;;18.41;19.04
84028;BME280;74111;45.650;25.612;2024-01-10T10:54:19;96230.92;;;19.05;17.15
84028;BME280;74111;45.650;25.612;2024-01-10T10:56:51;96226.00;;;19.04;14.46
84028;BME280;74111;45.650;25.612;2024-01-10T10:59:20;96229.59;;;19.05;16.89
84028;BME280;74111;45.650;25.612;2024-01-10T11:01:51;96224.56;;;19.24;15.86
84028;BME280;74111;45.650;25.612;2024-01-10T11:04:21;96227.06;;;19.68;17.69
84028;BME280;74111;45.650;25.612;2024-01-10T11:06:50;96226.67;;;20.18;18.39
84028;BME280;74111;45.650;25.612;2024-01-10T11:09:21;96218.48;;;20.60;14.21
84028;BME280;74111;45.650;25.612;2024-01-10T11:14:47;96213.27;;;21.22;16.14
84028;BME280;74111;45.650;25.612;2024-01-10T11:23:19;96207.20;;;22.96;15.39
84028;BME280;74111;45.650;25.612;2024-01-10T11:25:51;96203.31;;;23.02;13.73
84028;BME280;74111;45.650;25.612;2024-01-10T11:28:20;96199.65;;;23.01;14.64
84028;BME280;74111;45.650;25.612;2024-01-10T11:30:48;96196.76;;;22.91;12.65
84028;BME280;74111;45.650;25.612;2024-01-10T11:33:34;96194.98;;;22.83;13.30
84028;BME280;74111;45.650;25.612;2024-01-10T11:36:12;96195.02;;;22.96;14.38
84028;BME280;74111;45.650;25.612;2024-01-10T11:41:32;96189.64;;;22.07;11.90
84028;BME280;74111;45.650;25.612;2024-01-10T11:46:53;96178.84;;;21.25;14.04
84028;BME280;74111;45.650;25.612;2024-01-10T11:49:23;96180.13;;;21.76;13.97
84028;BME280;74111;45.650;25.612;2024-01-10T11:51:57;96180.27;;;22.24;13.73
84028;BME280;74111;45.650;25.612;2024-01-10T11:57:20;96183.33;;;22.79;12.15
84028;BME280;74111;45.650;25.612;2024-01-10T11:59:51;96182.61;;;22.72;11.82
84028;BME280;74111;45.650;25.612;2024-01-10T12:02:22;96181.67;;;22.66;12.58
84028;BME280;74111;45.650;25.612;2024-01-10T12:04:53;96175.10;;;22.55;12.17
84028;BME280;74111;45.650;25.612;2024-01-10T12:07:23;96172.48;;;22.35;11.49
84028;BME280;74111;45.650;25.612;2024-01-10T12:09:54;96173.45;;;22.19;12.78
84028;BME280;74111;45.650;25.612;2024-01-10T12:12:25;96171.42;;;22.33;11.98
84028;BME280;74111;45.650;25.612;2024-01-10T12:14:53;96165.38;;;22.13;12.47
84028;BME280;74111;45.650;25.612;2024-01-10T12:17:26;96164.08;;;22.08;12.51
84028;BME280;74111;45.650;25.612;2024-01-10T12:19:55;96165.39;;;22.16;11.65
84028;BME280;74111;45.650;25.612;2024-01-10T12:22:23;96164.92;;;22.13;13.25
84028;BME280;74111;45.650;25.612;2024-01-10T12:24:51;96165.52;;;22.38;12.72
84028;BME280;74111;45.650;25.612;2024-01-10T12:27:20;96163.10;;;22.28;12.80
84028;BME280;74111;45.650;25.612;2024-01-10T12:29:51;96164.15;;;22.39;13.92
84028;BME280;74111;45.650;25.612;2024-01-10T12:32:22;96162.16;;;22.34;11.20
84028;BME280;74111;45.650;25.612;2024-01-10T12:35:01;96158.71;;;21.77;11.42
84028;BME280;74111;45.650;25.612;2024-01-10T12:37:31;96156.39;;;21.47;13.12
84028;BME280;74111;45.650;25.612;2024-01-10T12:40:00;96152.94;;;21.34;12.53
84028;BME280;74111;45.650;25.612;2024-01-10T12:42:31;96153.19;;;21.24;13.36
84028;BME280;74111;45.650;25.612;2024-01-10T12:45:01;96157.93;;;21.48;13.01
84028;BME280;74111;45.650;25.612;2024-01-10T12:47:34;96161.17;;;21.96;13.62
84028;BME280;74111;45.650;25.612;2024-01-10T12:50:03;96161.64;;;22.07;12.75
84028;BME280;74111;45.650;25.612;2024-01-10T12:52:31;96161.10;;;21.91;12.64
84028;BME280;74111;45.650;25.612;2024-01-10T12:54:59;96160.85;;;21.90;13.03
84028;BME280;74111;45.650;25.612;2024-01-10T12:57:28;96162.36;;;22.05;13.51
84028;BME280;74111;45.650;25.612;2024-01-10T12:59:56;96159.85;;;22.12;12.89
84028;BME280;74111;45.650;25.612;2024-01-10T13:02:24;96159.64;;;22.18;12.49
84028;BME280;74111;45.650;25.612;2024-01-10T13:04:52;96154.47;;;21.83;11.76
84028;BME280;74111;45.650;25.612;2024-01-10T13:07:21;96151.55;;;21.45;12.61
84028;BME280;74111;45.650;25.612;2024-01-10T13:09:49;96152.73;;;20.97;12.69
84028;BME280;74111;45.650;25.612;2024-01-10T13:12:17;96149.40;;;20.48;13.43
84028;BME280;74111;45.650;25.612;2024-01-10T13:14:45;96145.66;;;20.47;14.70
84028;BME280;74111;45.650;25.612;2024-01-10T13:17:14;96148.65;;;20.67;14.28